Bullhead, SD (57621)

1:53 AM MST on November 26, 2014 (GMT -0700)
Mobridge Municipal | Change Station
CLOSE
Current Station
Airport
Location: Mobridge,
Elevation: 1716 ft
Nearby Weather Stations

Elev 1716 ft 45.55 °N, 100.41 °W | Updated 40 minutes ago

Overcast
Overcast
20 °F
Feels Like 4 °F
N
22
Wind Variable Wind from North
Gusts 30 mph

Today
High -- | Low -- °F
--% Chance of Precip.
Yesterday
High -- | Low -- °F
Precip. -- in
6:58 AM 4:04 PM
Waxing Crescent, 18% visible
Pressure 30.09 in
Visibility 10.0 miles
Clouds Overcast 1500 ft
Windchill 4 °F
Dew Point 15 °F
Humidity 81%
Rainfall 0.00 in
Snow Depth Not available.
UV 0 out of 12
Pollen .10 out of 12
Air Quality Not available.
Flu Activity Not available.
SPECI KMBG 260813Z AUTO 36019G26KT 10SM OVC015 M07/M09 A3009 RMK AO2 PK WND 36026/0804 T10671094

More Conditions Fewer Conditions

Pressure 30.09 in
Visibility 10.0 miles
Clouds Overcast 1500 ft
Windchill 4 °F
Dew Point 15 °F
Humidity 81%
Rainfall 0.00 in
Snow Depth Not available.
UV 0 out of 12
Pollen .10 out of 12
Air Quality Not available.
Flu Activity Not available.
SPECI KMBG 260813Z AUTO 36019G26KT 10SM OVC015 M07/M09 A3009 RMK AO2 PK WND 36026/0804 T10671094

More Conditions Fewer Conditions

10-Day Weather Forecast

Almanac

Astronomy

Nov. 26, 2014 Rise Set
Actual Time
Civil Twilight
Nautical Twilight
Astronomical Twilight
Moon
Length of Visible Light
Length of Day
Tomorrow will be .
, % of the Moon is Illuminated

Today's Extremes

State Highs State Lows

Community

WunderPhotos

Upload Photos

1,773,694 photos uploaded!

WunderBlogs® & News

Nearby

Air Quality

  Air Quality AQ Index Pollutant
Not available.

Snow Depth

Station Depth Elevation

Earthquake Activity

City Distance Mag. Time & Date
Minimum magnitude displayed is 2.5.

Coastal Water Temperatures

Place Temperature

Nearby Weather Stations